Time;durP1;ratioP1;P1;durP2;ratioP2;P2;SDS_P1;SDS_P2;PMS_P1;PMS_P2;Temp;Humidity;BMP_temperature;BMP_pressure;BME280_temperature;BME280_humidity;BME280_pressure;Samples;Min_cycle;Max_cycle;Signal;HPM_P1;HPM_P2
2022/09/07 00:01:45;;;;;;;5.90;1.30;;;21.10;99.60;;;;;;5031337;28;20026;-73
2022/09/07 00:04:11;;;;;;;3.88;1.40;;;21.00;99.90;;;;;;5013611;28;20041;-72
2022/09/07 00:06:38;;;;;;;3.92;1.60;;;21.00;99.90;;;;;;5013432;28;20036;-73
2022/09/07 00:09:04;;;;;;;3.35;1.10;;;20.90;99.90;;;;;;5031001;28;20033;-73
2022/09/07 00:11:30;;;;;;;3.35;1.30;;;20.90;99.90;;;;;;5030916;28;20442;-72
2022/09/07 00:13:56;;;;;;;3.60;1.10;;;20.90;99.90;;;;;;5013082;28;20029;-72
2022/09/07 00:16:25;;;;;;;3.25;0.90;;;20.90;99.90;;;;;;5030961;28;20470;-72
2022/09/07 00:18:57;;;;;;;5.07;1.42;;;20.80;99.90;;;;;;5013098;28;20398;-73
2022/09/07 00:21:24;;;;;;;4.22;1.50;;;20.90;99.90;;;;;;5030812;28;20040;-73
2022/09/07 00:23:50;;;;;;;3.78;1.67;;;20.80;99.90;;;;;;5029869;28;20064;-73
2022/09/07 00:26:20;;;;;;;4.78;1.20;;;20.80;99.90;;;;;;5030747;28;20038;-73
2022/09/07 00:28:47;;;;;;;5.32;1.25;;;20.80;99.90;;;;;;5030888;28;20040;-71
2022/09/07 00:31:19;;;;;;;6.20;1.73;;;20.70;99.90;;;;;;5030800;28;20029;-70
2022/09/07 00:33:47;;;;;;;8.88;2.38;;;20.70;99.90;;;;;;5013164;28;20060;-72
2022/09/07 00:36:14;;;;;;;10.40;3.53;;;20.70;99.90;;;;;;5032997;28;20501;-70
2022/09/07 00:38:41;;;;;;;11.38;4.40;;;20.80;99.90;;;;;;5034801;28;20062;-70
2022/09/07 00:41:07;;;;;;;9.85;3.70;;;20.80;99.90;;;;;;5034795;28;20033;-71
2022/09/07 00:43:38;;;;;;;10.40;3.63;;;20.70;99.90;;;;;;5017300;28;20038;-71
2022/09/07 00:46:06;;;;;;;9.35;2.70;;;20.70;99.90;;;;;;5034767;28;20037;-71
2022/09/07 00:48:45;;;;;;;8.77;2.40;;;20.70;99.90;;;;;;5034780;28;20105;-71
2022/09/07 00:51:18;;;;;;;6.97;2.10;;;20.60;99.90;;;;;;5034804;28;20394;-71
2022/09/07 00:53:52;;;;;;;8.23;2.22;;;20.60;99.90;;;;;;5034690;28;20605;-71
2022/09/07 00:56:21;;;;;;;7.05;2.65;;;20.50;99.90;;;;;;5034588;28;20473;-71
2022/09/07 00:58:47;;;;;;;6.43;2.03;;;20.50;99.90;;;;;;5034570;28;20025;-71
2022/09/07 01:01:13;;;;;;;9.95;2.53;;;20.50;99.90;;;;;;5034355;28;20037;-71
2022/09/07 01:03:44;;;;;;;6.32;2.13;;;20.50;99.90;;;;;;5017059;28;20068;-71
2022/09/07 01:06:19;;;;;;;5.28;1.60;;;20.50;99.90;;;;;;5034416;28;20029;-71
2022/09/07 01:08:48;;;;;;;6.22;2.13;;;20.40;99.90;;;;;;5034353;28;20029;-71
2022/09/07 01:11:16;;;;;;;2.70;1.30;;;20.40;99.90;;;;;;5034659;28;20025;-71
2022/09/07 01:13:43;;;;;;;2.72;1.15;;;20.40;99.90;;;;;;5034311;28;20034;-71
2022/09/07 01:16:21;;;;;;;4.72;1.60;;;20.50;99.90;;;;;;5034576;28;20047;-71
2022/09/07 01:18:59;;;;;;;3.58;1.40;;;20.50;99.90;;;;;;5016622;28;20401;-70
2022/09/07 01:22:09;;;;;;;5.30;1.30;;;20.50;99.90;;;;;;5034182;28;20028;-71
2022/09/07 01:25:07;;;;;;;4.75;1.52;;;20.40;99.90;;;;;;4986706;28;20268;-71
2022/09/07 01:27:39;;;;;;;5.05;1.50;;;20.30;99.90;;;;;;5016275;28;20030;-71
2022/09/07 01:30:14;;;;;;;5.72;2.00;;;20.30;99.90;;;;;;5032516;28;20398;-71
2022/09/07 01:33:07;;;;;;;5.18;1.85;;;20.30;99.90;;;;;;5034318;28;20494;-71
2022/09/07 01:35:49;;;;;;;4.63;1.80;;;20.30;99.90;;;;;;4999933;28;20497;-71
2022/09/07 01:38:21;;;;;;;5.15;1.70;;;20.30;99.90;;;;;;5034136;28;20087;-71
2022/09/07 01:41:08;;;;;;;5.10;1.70;;;20.30;99.90;;;;;;5033583;28;20057;-71
2022/09/07 01:43:51;;;;;;;7.03;1.90;;;20.30;99.90;;;;;;5033980;28;20397;-71
2022/09/07 01:46:48;;;;;;;7.50;1.70;;;20.30;99.90;;;;;;5033670;28;20029;-71
2022/09/07 01:49:26;;;;;;;5.05;1.48;;;20.30;99.90;;;;;;5032217;28;20041;-71
2022/09/07 01:51:58;;;;;;;2.45;1.20;;;20.20;99.90;;;;;;5033758;28;20399;-71
2022/09/07 01:54:29;;;;;;;5.43;1.52;;;20.30;99.90;;;;;;5015954;28;20026;-71
2022/09/07 01:57:01;;;;;;;3.40;1.23;;;20.20;99.90;;;;;;5032315;28;20025;-71
2022/09/07 01:59:42;;;;;;;5.68;1.40;;;20.20;99.90;;;;;;5033349;28;20033;-71
2022/09/07 02:02:16;;;;;;;1.80;1.05;;;20.30;99.90;;;;;;5032234;28;20030;-71
2022/09/07 02:04:54;;;;;;;5.85;1.38;;;20.30;99.90;;;;;;5033362;28;20029;-72
2022/09/07 02:07:23;;;;;;;3.72;1.10;;;20.40;99.90;;;;;;5032134;28;20044;-71
2022/09/07 02:09:59;;;;;;;3.53;1.02;;;20.50;99.90;;;;;;5033067;28;20029;-71
2022/09/07 02:12:35;;;;;;;4.57;1.40;;;20.50;99.90;;;;;;5033283;28;20029;-71
2022/09/07 02:15:09;;;;;;;3.92;1.52;;;20.50;99.90;;;;;;5015788;28;20029;-71
2022/09/07 02:17:41;;;;;;;3.65;1.15;;;20.50;99.90;;;;;;5033197;28;20105;-71
2022/09/07 02:20:25;;;;;;;4.00;1.40;;;20.50;99.90;;;;;;5033270;28;20018;-71
2022/09/07 02:22:59;;;;;;;4.93;1.40;;;20.40;99.90;;;;;;5015779;28;20029;-71
2022/09/07 02:25:36;;;;;;;6.05;1.50;;;20.40;99.90;;;;;;5032197;28;20406;-71
2022/09/07 02:28:12;;;;;;;5.70;1.60;;;20.40;99.90;;;;;;5033411;28;20453;-71
2022/09/07 02:30:38;;;;;;;4.65;1.40;;;20.30;99.90;;;;;;5032632;28;20089;-71
2022/09/07 02:33:04;;;;;;;3.10;1.48;;;20.30;99.90;;;;;;5054840;23;20049;-83
2022/09/07 02:35:31;;;;;;;4.78;1.65;;;20.30;99.90;;;;;;4998474;28;20040;-83
2022/09/07 02:38:00;;;;;;;3.47;1.30;;;20.20;99.90;;;;;;5032185;28;20049;-83
2022/09/07 02:40:25;;;;;;;3.92;1.60;;;20.20;99.90;;;;;;5014663;28;20025;-84
2022/09/07 02:42:51;;;;;;;3.30;1.30;;;20.20;99.90;;;;;;5032469;28;20496;-83
2022/09/07 02:45:17;;;;;;;4.07;1.48;;;20.20;99.90;;;;;;5032006;28;20033;-83
2022/09/07 02:47:52;;;;;;;3.85;1.52;;;20.10;99.90;;;;;;5014586;28;20136;-83
2022/09/07 02:50:45;;;;;;;3.28;1.40;;;20.10;99.90;;;;;;4998272;28;20402;-83
2022/09/07 02:53:27;;;;;;;3.45;1.70;;;20.20;99.90;;;;;;5014243;28;20132;-83
2022/09/07 02:56:21;;;;;;;4.40;1.42;;;20.10;99.90;;;;;;5031894;28;20032;-82
2022/09/07 02:58:58;;;;;;;2.60;1.40;;;20.10;99.90;;;;;;5031316;28;20022;-82
2022/09/07 03:01:52;;;;;;;3.80;1.70;;;20.10;99.90;;;;;;5014325;28;20034;-83
2022/09/07 03:04:29;;;;;;;6.47;2.20;;;20.10;99.90;;;;;;5031758;28;20041;-84
2022/09/07 03:07:04;;;;;;;6.13;2.15;;;20.10;99.90;;;;;;5014322;28;20048;-83
2022/09/07 03:09:36;;;;;;;4.32;2.08;;;20.00;99.90;;;;;;5031618;28;20124;-83
2022/09/07 03:12:06;;;;;;;4.72;2.15;;;20.10;99.90;;;;;;5013585;28;20474;-83
2022/09/07 03:14:33;;;;;;;4.57;2.42;;;20.10;99.90;;;;;;5031415;28;20029;-83
2022/09/07 03:17:00;;;;;;;6.40;3.15;;;20.00;99.90;;;;;;5013899;28;20029;-83
2022/09/07 03:23:30;;;;;;;5.65;3.47;;;20.00;99.90;;;;;;5009434;23;20586;-69
2022/09/07 03:25:55;;;;;;;8.93;5.07;;;19.90;99.90;;;;;;5027285;28;20351;-70
2022/09/07 03:28:21;;;;;;;7.50;5.07;;;20.00;99.90;;;;;;5028931;28;20286;-71
2022/09/07 03:30:47;;;;;;;8.18;6.80;;;19.90;99.90;;;;;;5030274;28;20021;-69
2022/09/07 03:33:14;;;;;;;10.35;7.47;;;20.00;99.90;;;;;;5012826;28;20080;-68
2022/09/07 03:35:42;;;;;;;11.50;8.85;;;20.00;99.90;;;;;;5030508;28;20044;-68
2022/09/07 03:38:08;;;;;;;11.02;9.10;;;20.00;99.90;;;;;;5030704;28;20041;-73
2022/09/07 03:40:34;;;;;;;11.82;8.75;;;20.00;99.90;;;;;;5029498;28;20492;-70
2022/09/07 03:43:00;;;;;;;14.02;10.13;;;20.00;99.90;;;;;;5030059;28;20026;-67
2022/09/07 03:45:26;;;;;;;14.88;11.45;;;20.00;99.90;;;;;;5029937;28;20029;-67
2022/09/07 03:47:51;;;;;;;14.40;11.00;;;20.00;99.90;;;;;;5014630;28;20394;-66
2022/09/07 03:50:17;;;;;;;15.45;11.35;;;20.00;99.90;;;;;;5009802;28;20427;-67
2022/09/07 03:52:43;;;;;;;14.20;11.45;;;20.00;99.90;;;;;;4992463;28;20055;-67
2022/09/07 03:55:09;;;;;;;15.90;11.77;;;20.00;99.90;;;;;;5009917;28;20491;-67
2022/09/07 03:57:35;;;;;;;14.18;10.82;;;20.00;99.90;;;;;;5009566;28;20114;-67
2022/09/07 04:00:03;;;;;;;17.40;12.85;;;20.00;99.90;;;;;;5009957;28;20030;-67
2022/09/07 04:02:38;;;;;;;18.45;12.48;;;19.90;99.90;;;;;;5010375;28;20121;-68
2022/09/07 04:05:04;;;;;;;15.48;11.45;;;19.90;99.90;;;;;;5010014;28;20123;-68
2022/09/07 04:07:30;;;;;;;16.48;12.35;;;19.90;99.90;;;;;;5009601;28;20727;-67
2022/09/07 04:09:56;;;;;;;16.95;12.73;;;19.90;99.90;;;;;;5008696;28;20112;-67
2022/09/07 04:12:22;;;;;;;22.85;13.88;;;19.90;99.90;;;;;;5007961;28;20026;-67
2022/09/07 04:14:48;;;;;;;20.80;13.75;;;19.90;99.90;;;;;;5009725;28;20490;-67
2022/09/07 04:17:14;;;;;;;20.98;14.02;;;19.90;99.90;;;;;;5009221;28;20064;-67
2022/09/07 04:19:39;;;;;;;23.77;16.02;;;19.90;99.90;;;;;;5009580;28;20034;-67
2022/09/07 04:22:05;;;;;;;23.33;15.48;;;19.80;99.90;;;;;;5009203;28;20076;-66
2022/09/07 04:24:31;;;;;;;23.00;15.88;;;19.80;99.90;;;;;;5009727;28;20128;-67
2022/09/07 04:26:57;;;;;;;26.23;17.92;;;19.70;99.90;;;;;;5008778;28;20038;-67
2022/09/07 04:29:23;;;;;;;25.60;18.30;;;19.80;99.90;;;;;;5009429;28;20071;-67
2022/09/07 04:31:49;;;;;;;32.83;20.55;;;19.80;99.90;;;;;;4991242;28;20120;-67
2022/09/07 04:34:16;;;;;;;28.52;18.58;;;19.90;99.90;;;;;;4991317;28;20038;-67
2022/09/07 04:36:42;;;;;;;25.90;18.38;;;19.90;99.90;;;;;;4991448;28;20037;-66
2022/09/07 04:39:09;;;;;;;26.88;18.73;;;19.90;99.90;;;;;;5009290;28;20033;-67
2022/09/07 04:41:35;;;;;;;23.52;17.40;;;19.80;99.90;;;;;;5010638;28;20022;-65
2022/09/07 04:44:03;;;;;;;28.45;17.83;;;19.80;99.90;;;;;;5012592;28;20034;-67
2022/09/07 04:46:34;;;;;;;28.08;18.30;;;19.80;99.90;;;;;;5009457;28;20034;-67
2022/09/07 04:49:07;;;;;;;24.92;16.30;;;19.80;99.90;;;;;;5009432;28;20457;-66
2022/09/07 04:51:33;;;;;;;25.92;15.68;;;19.80;99.90;;;;;;5009423;28;20125;-69
2022/09/07 04:54:01;;;;;;;21.33;15.07;;;19.80;99.90;;;;;;5009527;28;20109;-69
2022/09/07 04:56:27;;;;;;;24.10;15.80;;;19.80;99.90;;;;;;5008974;28;20026;-67
2022/09/07 04:58:53;;;;;;;24.60;15.73;;;19.80;99.90;;;;;;5009261;28;20030;-68
2022/09/07 05:01:21;;;;;;;23.80;15.73;;;19.80;99.90;;;;;;4991396;28;20037;-68
2022/09/07 05:03:47;;;;;;;22.95;15.35;;;19.80;99.90;;;;;;5010242;28;20025;-68
2022/09/07 05:06:15;;;;;;;23.45;15.18;;;19.90;99.90;;;;;;5009816;28;20034;-68
2022/09/07 05:08:47;;;;;;;20.50;14.25;;;19.80;99.90;;;;;;5009625;28;20112;-69
2022/09/07 05:11:14;;;;;;;18.98;13.45;;;19.80;99.90;;;;;;5009143;28;20253;-68
2022/09/07 05:13:41;;;;;;;20.50;13.68;;;19.80;99.90;;;;;;5009726;28;20026;-68
2022/09/07 05:16:22;;;;;;;21.15;13.25;;;19.80;99.90;;;;;;5009399;28;20026;-68
2022/09/07 05:18:50;;;;;;;20.48;13.40;;;19.80;99.90;;;;;;5009466;28;20026;-68
2022/09/07 05:21:20;;;;;;;21.45;14.40;;;19.80;99.90;;;;;;5009809;28;20026;-68
2022/09/07 05:23:49;;;;;;;21.05;13.07;;;19.80;99.90;;;;;;5012893;28;20034;-69
2022/09/07 05:26:17;;;;;;;19.38;12.52;;;19.80;99.90;;;;;;5012404;28;20164;-68
2022/09/07 05:28:43;;;;;;;19.35;12.35;;;19.80;99.90;;;;;;5013173;28;20136;-68
2022/09/07 05:31:14;;;;;;;17.65;11.90;;;19.80;99.90;;;;;;5012565;28;20050;-68
2022/09/07 05:33:47;;;;;;;19.58;12.55;;;19.80;99.90;;;;;;5013021;28;20033;-68
2022/09/07 05:36:13;;;;;;;17.73;11.90;;;19.80;99.90;;;;;;4994991;28;20250;-69
2022/09/07 05:38:39;;;;;;;18.58;11.77;;;19.80;99.90;;;;;;5012766;28;20053;-68
2022/09/07 05:41:12;;;;;;;18.02;10.75;;;19.80;99.90;;;;;;5012538;28;20029;-69
2022/09/07 05:43:38;;;;;;;16.23;10.68;;;19.80;99.90;;;;;;5013051;28;20394;-69
2022/09/07 05:46:04;;;;;;;16.35;10.45;;;19.80;99.90;;;;;;5012576;28;20033;-68
2022/09/07 05:48:30;;;;;;;19.13;10.95;;;19.70;99.90;;;;;;5012851;28;20033;-68
2022/09/07 05:50:56;;;;;;;15.30;10.63;;;19.70;99.90;;;;;;5012505;28;20049;-68
2022/09/07 05:53:22;;;;;;;16.98;11.38;;;19.80;99.90;;;;;;5012863;28;20382;-69
2022/09/07 05:55:51;;;;;;;15.73;10.38;;;19.80;99.90;;;;;;5011586;28;20060;-69
2022/09/07 05:58:17;;;;;;;15.52;10.85;;;19.80;99.90;;;;;;5012797;28;20039;-69
2022/09/07 06:00:45;;;;;;;17.42;10.95;;;19.80;99.90;;;;;;5012372;28;20030;-69
2022/09/07 06:03:11;;;;;;;16.60;10.40;;;19.80;99.90;;;;;;5012367;28;20021;-69
2022/09/07 06:05:37;;;;;;;17.17;10.93;;;19.80;99.90;;;;;;5012380;28;20343;-69
2022/09/07 06:08:03;;;;;;;15.02;10.75;;;19.80;99.90;;;;;;5012025;28;20112;-69
2022/09/07 06:10:36;;;;;;;15.52;11.10;;;19.80;99.90;;;;;;5011346;28;20344;-68
2022/09/07 06:13:03;;;;;;;18.50;11.18;;;19.80;99.90;;;;;;5012138;28;20050;-67
2022/09/07 06:15:32;;;;;;;17.73;10.45;;;19.80;99.90;;;;;;5012080;28;20116;-67
2022/09/07 06:17:58;;;;;;;;;;;19.80;99.90;;;;;;5012065;28;20371;-67
2022/09/07 06:20:24;;;;;;;17.05;11.40;;;19.80;99.90;;;;;;5011363;28;19955;-67
2022/09/07 06:22:50;;;;;;;19.77;12.27;;;19.80;99.90;;;;;;5011904;28;20151;-66
2022/09/07 06:25:16;;;;;;;18.02;11.68;;;19.90;99.90;;;;;;5011850;28;20029;-69
2022/09/07 06:27:42;;;;;;;20.75;12.57;;;19.90;99.90;;;;;;5011311;28;20114;-70
2022/09/07 06:30:09;;;;;;;20.42;12.55;;;20.00;99.90;;;;;;5011443;28;20544;-71
2022/09/07 06:32:37;;;;;;;17.00;11.35;;;19.90;99.90;;;;;;5010784;28;20038;-70
2022/09/07 06:35:04;;;;;;;18.45;11.70;;;19.90;99.90;;;;;;4993629;28;20107;-70
2022/09/07 06:37:30;;;;;;;19.42;12.15;;;19.90;99.90;;;;;;5011444;28;20036;-70
2022/09/07 06:39:56;;;;;;;20.25;12.50;;;20.00;99.90;;;;;;5011413;28;20044;-70
2022/09/07 06:42:22;;;;;;;20.17;13.25;;;20.00;99.90;;;;;;5011063;28;20432;-69
2022/09/07 06:44:51;;;;;;;17.65;12.77;;;19.90;99.90;;;;;;4993581;28;20040;-69
2022/09/07 06:47:17;;;;;;;19.85;11.90;;;20.00;99.90;;;;;;5011032;28;20108;-69
2022/09/07 06:49:43;;;;;;;21.27;13.18;;;20.10;99.90;;;;;;5011407;28;20158;-69
2022/09/07 06:52:09;;;;;;;18.65;11.27;;;20.10;99.90;;;;;;5011157;28;20050;-69
2022/09/07 06:54:34;;;;;;;18.70;12.63;;;20.10;99.90;;;;;;5008025;28;20104;-69
2022/09/07 06:57:07;;;;;;;16.63;11.82;;;20.20;99.90;;;;;;4989045;28;20493;-70
2022/09/07 06:59:33;;;;;;;17.20;11.07;;;20.20;99.90;;;;;;4992714;28;20029;-70
2022/09/07 07:01:59;;;;;;;16.00;10.18;;;20.30;99.90;;;;;;4993027;28;20026;-69
2022/09/07 07:04:25;;;;;;;16.73;11.10;;;20.40;99.90;;;;;;5011413;28;20452;-69
2022/09/07 07:06:51;;;;;;;15.75;11.07;;;20.40;99.90;;;;;;5010690;28;20022;-69
2022/09/07 07:09:17;;;;;;;13.15;9.75;;;20.50;99.90;;;;;;5010608;28;20470;-71
2022/09/07 07:11:46;;;;;;;15.70;10.50;;;20.50;99.90;;;;;;5009401;28;20029;-70
2022/09/07 07:14:15;;;;;;;;;;;20.50;99.90;;;;;;5009831;28;20484;-72
2022/09/07 07:16:41;;;;;;;18.92;11.05;;;20.60;99.90;;;;;;5010175;28;19909;-67
2022/09/07 07:19:08;;;;;;;16.13;10.43;;;20.60;99.90;;;;;;5010382;28;20030;-72
2022/09/07 07:21:33;;;;;;;15.63;11.15;;;20.60;99.90;;;;;;5010387;28;20088;-69
2022/09/07 07:23:59;;;;;;;18.67;11.07;;;20.60;99.90;;;;;;5010676;28;20038;-69
2022/09/07 07:26:25;;;;;;;17.05;11.60;;;20.60;99.90;;;;;;5009829;28;20033;-68
2022/09/07 07:28:53;;;;;;;21.80;11.88;;;20.60;99.90;;;;;;5010285;28;20029;-69
2022/09/07 07:31:22;;;;;;;18.23;11.05;;;20.60;99.90;;;;;;5009978;28;20352;-68
2022/09/07 07:33:51;;;;;;;19.45;11.77;;;20.60;99.90;;;;;;5010004;28;20022;-68
2022/09/07 07:36:20;;;;;;;17.00;11.50;;;20.70;99.90;;;;;;5009496;28;20100;-67
2022/09/07 07:38:48;;;;;;;18.80;11.48;;;20.70;99.90;;;;;;5009572;28;20117;-67
2022/09/07 07:41:16;;;;;;;19.15;11.05;;;20.70;99.90;;;;;;5008902;28;20033;-67
2022/09/07 07:43:42;;;;;;;14.02;9.40;;;20.70;99.90;;;;;;5009979;28;20034;-67
2022/09/07 07:46:12;;;;;;;13.43;10.38;;;20.70;99.90;;;;;;5007434;28;20125;-67
2022/09/07 07:48:37;;;;;;;16.10;8.55;;;20.70;99.90;;;;;;5010009;28;20029;-66
2022/09/07 07:51:06;;;;;;;16.02;8.63;;;20.70;99.90;;;;;;5003163;28;20683;-66
2022/09/07 07:53:33;;;;;;;;;;;20.70;99.90;;;;;;4989506;28;20499;-66
2022/09/07 07:56:00;;;;;;;10.27;7.05;;;20.70;99.90;;;;;;4989155;28;19910;-67
2022/09/07 07:58:27;;;;;;;9.73;6.43;;;20.70;99.90;;;;;;4990537;28;20030;-68
2022/09/07 08:00:54;;;;;;;11.95;6.55;;;20.60;99.90;;;;;;4989623;28;20542;-66
2022/09/07 08:03:21;;;;;;;8.93;6.13;;;20.60;99.90;;;;;;4990117;28;20517;-66
2022/09/07 08:05:47;;;;;;;9.95;6.18;;;20.60;99.90;;;;;;4990411;28;20030;-66
2022/09/07 08:08:14;;;;;;;13.73;6.50;;;20.60;99.90;;;;;;4991028;28;20030;-66
2022/09/07 08:10:40;;;;;;;12.77;6.60;;;20.60;99.90;;;;;;4990534;28;20030;-67
2022/09/07 08:13:06;;;;;;;11.52;6.10;;;20.50;99.90;;;;;;4973962;28;20498;-67
2022/09/07 08:15:40;;;;;;;11.10;6.22;;;20.50;99.90;;;;;;4990703;28;20057;-65
2022/09/07 08:18:05;;;;;;;9.07;5.90;;;20.40;99.90;;;;;;4990611;28;20045;-67
2022/09/07 08:20:31;;;;;;;14.73;6.53;;;20.40;99.90;;;;;;4989891;28;20042;-67
2022/09/07 08:22:57;;;;;;;10.43;5.90;;;20.30;99.90;;;;;;4990294;28;20030;-67
2022/09/07 08:25:24;;;;;;;11.95;6.18;;;20.30;99.90;;;;;;4990008;28;20027;-67
2022/09/07 08:27:49;;;;;;;11.10;6.55;;;20.20;99.90;;;;;;4990578;28;20030;-68
2022/09/07 08:30:15;;;;;;;10.82;6.57;;;20.20;99.90;;;;;;4990744;28;20106;-67
2022/09/07 08:32:41;;;;;;;12.77;8.25;;;20.20;99.90;;;;;;4990138;28;20046;-69
2022/09/07 08:35:07;;;;;;;10.85;7.43;;;20.20;99.90;;;;;;5083219;23;20144;-72
2022/09/07 08:37:36;;;;;;;12.38;8.20;;;20.10;99.90;;;;;;5028386;28;20392;-72
2022/09/07 08:40:05;;;;;;;13.70;7.15;;;20.10;99.90;;;;;;5029387;28;20451;-70
2022/09/07 08:43:03;;;;;;;11.95;7.00;;;20.10;99.90;;;;;;5028969;28;20563;-70
2022/09/07 08:45:49;;;;;;;12.43;6.95;;;20.10;99.90;;;;;;5029220;28;20090;-69
2022/09/07 08:48:28;;;;;;;10.68;7.13;;;20.20;99.90;;;;;;5029060;28;20034;-73
2022/09/07 08:51:23;;;;;;;12.40;7.57;;;20.20;99.90;;;;;;5028916;28;20041;-72
2022/09/07 08:53:49;;;;;;;14.30;7.05;;;20.20;99.90;;;;;;5027776;28;20061;-70
2022/09/07 08:56:23;;;;;;;11.93;6.68;;;20.30;99.90;;;;;;5011589;28;20482;-71
2022/09/07 08:58:54;;;;;;;12.93;6.93;;;20.30;99.90;;;;;;5033243;28;20059;-71
2022/09/07 09:01:32;;;;;;;12.45;7.00;;;20.30;99.90;;;;;;5031900;28;20030;-71
2022/09/07 09:03:58;;;;;;;10.32;7.13;;;20.40;99.90;;;;;;5030485;28;20095;-71
2022/09/07 09:06:47;;;;;;;13.18;8.40;;;20.40;99.90;;;;;;5032156;28;20033;-72
2022/09/07 09:09:22;;;;;;;10.43;6.82;;;20.40;99.90;;;;;;5032802;28;20026;-71
2022/09/07 09:11:57;;;;;;;13.63;7.40;;;20.50;99.90;;;;;;5034322;28;20040;-71
2022/09/07 09:14:48;;;;;;;13.00;7.70;;;20.50;99.90;;;;;;5031443;28;20029;-71
2022/09/07 09:17:24;;;;;;;13.00;7.60;;;20.50;99.90;;;;;;5034203;28;20036;-70
2022/09/07 09:20:11;;;;;;;9.25;6.47;;;20.40;99.90;;;;;;5034194;28;20428;-71
2022/09/07 09:22:37;;;;;;;10.02;7.18;;;20.50;99.90;;;;;;5033110;28;20389;-72
2022/09/07 09:25:25;;;;;;;11.90;6.00;;;20.50;99.90;;;;;;5034145;28;20041;-72
2022/09/07 09:27:51;;;;;;;8.43;6.50;;;20.60;99.90;;;;;;5034078;28;20033;-71
2022/09/07 09:30:23;;;;;;;9.95;5.95;;;20.70;99.90;;;;;;5034330;28;20279;-72
2022/09/07 09:32:51;;;;;;;7.65;5.57;;;20.70;99.90;;;;;;5034861;28;20037;-72
2022/09/07 09:35:36;;;;;;;9.93;6.72;;;20.70;99.90;;;;;;5034592;28;20396;-72
2022/09/07 09:38:02;;;;;;;12.20;7.05;;;20.80;99.90;;;;;;5034419;28;20057;-72
2022/09/07 09:40:33;;;;;;;7.43;5.32;;;20.80;99.90;;;;;;5032907;28;20390;-72
2022/09/07 09:43:05;;;;;;;8.10;5.80;;;20.80;99.90;;;;;;5033796;28;20113;-72
2022/09/07 09:45:42;;;;;;;10.27;6.53;;;20.90;99.90;;;;;;5034192;28;20120;-72
2022/09/07 09:48:10;;;;;;;11.77;7.20;;;20.80;99.90;;;;;;5034190;28;20041;-72
2022/09/07 09:50:39;;;;;;;9.90;5.95;;;20.90;99.90;;;;;;5034032;28;20036;-72
2022/09/07 09:53:15;;;;;;;9.18;7.00;;;20.90;99.90;;;;;;5032848;28;20088;-72
2022/09/07 09:55:41;;;;;;;11.85;8.73;;;20.90;99.90;;;;;;5033961;28;20025;-72
2022/09/07 09:58:36;;;;;;;10.45;7.50;;;21.00;99.90;;;;;;5033939;28;20080;-72
2022/09/07 10:01:19;;;;;;;18.05;10.63;;;21.10;99.90;;;;;;5033830;28;20037;-72
2022/09/07 10:03:45;;;;;;;13.90;9.32;;;21.20;99.90;;;;;;5033858;28;20557;-72
2022/09/07 10:06:15;;;;;;;12.20;9.27;;;21.20;99.90;;;;;;5033663;28;20026;-72
2022/09/07 10:08:59;;;;;;;12.75;8.52;;;21.30;99.90;;;;;;5032216;28;20087;-72
2022/09/07 10:11:48;;;;;;;10.57;7.57;;;21.30;99.90;;;;;;5032462;28;20405;-72
2022/09/07 10:14:25;;;;;;;9.60;7.15;;;21.40;99.90;;;;;;5033327;28;20064;-72
2022/09/07 10:16:51;;;;;;;8.77;6.60;;;21.50;99.90;;;;;;5033447;28;20533;-72
2022/09/07 10:19:31;;;;;;;10.63;5.72;;;21.60;99.90;;;;;;5033502;28;20379;-72
2022/09/07 10:21:59;;;;;;;8.07;5.53;;;21.70;99.90;;;;;;5032110;28;20038;-72
2022/09/07 10:24:29;;;;;;;12.10;5.30;;;21.70;99.90;;;;;;5033168;28;20099;-72
2022/09/07 10:26:56;;;;;;;8.80;5.88;;;21.80;99.90;;;;;;5031832;28;20030;-72
2022/09/07 10:29:30;;;;;;;8.63;5.78;;;21.70;99.90;;;;;;5033477;28;20076;-72
2022/09/07 10:32:08;;;;;;;8.20;5.10;;;21.70;99.90;;;;;;5033271;28;20030;-72
2022/09/07 10:34:45;;;;;;;6.43;4.53;;;21.70;99.90;;;;;;5033068;28;20113;-72
2022/09/07 10:37:29;;;;;;;6.28;4.32;;;21.70;99.90;;;;;;5032659;28;20120;-72
2022/09/07 10:40:04;;;;;;;7.72;4.15;;;21.70;99.90;;;;;;5031347;28;20071;-72
2022/09/07 10:42:34;;;;;;;6.82;4.35;;;21.70;99.90;;;;;;5032835;28;20051;-73
2022/09/07 10:45:20;;;;;;;7.68;4.20;;;21.70;99.90;;;;;;5032707;28;20375;-74
2022/09/07 10:48:30;;;;;;;8.80;4.22;;;21.70;99.90;;;;;;5032797;28;20064;-72
2022/09/07 10:50:58;;;;;;;6.88;3.75;;;21.70;99.90;;;;;;4971279;28;20035;-72
2022/09/07 10:53:33;;;;;;;6.65;4.47;;;21.80;99.90;;;;;;5020902;28;20045;-73
2022/09/07 10:56:14;;;;;;;7.90;4.82;;;21.80;99.90;;;;;;5031324;28;20044;-72
2022/09/07 10:59:04;;;;;;;8.95;4.90;;;21.80;99.90;;;;;;5032050;28;20078;-72
2022/09/07 11:01:51;;;;;;;8.73;5.28;;;21.90;99.90;;;;;;5031610;28;20077;-72
2022/09/07 11:04:26;;;;;;;8.07;5.32;;;21.90;99.90;;;;;;5031318;28;20479;-72
2022/09/07 11:07:06;;;;;;;9.32;5.40;;;22.00;99.90;;;;;;5031529;28;20038;-72
2022/09/07 11:10:23;;;;;;;7.28;4.85;;;22.10;99.90;;;;;;5032570;28;20108;-72
2022/09/07 11:12:52;;;;;;;7.93;5.20;;;22.00;99.90;;;;;;5006787;28;20038;-72
2022/09/07 11:15:33;;;;;;;9.23;4.80;;;21.90;99.90;;;;;;5032531;28;20433;-72
2022/09/07 11:18:17;;;;;;;8.20;5.25;;;21.90;99.90;;;;;;5032416;28;20040;-71
2022/09/07 11:20:54;;;;;;;6.07;4.78;;;22.00;99.90;;;;;;5031442;28;20029;-72
2022/09/07 11:23:42;;;;;;;12.43;8.25;;;22.00;99.90;;;;;;5032052;28;20043;-73
2022/09/07 11:26:24;;;;;;;8.18;5.50;;;22.00;99.90;;;;;;5031807;28;20055;-71
2022/09/07 11:29:02;;;;;;;6.85;5.03;;;22.00;99.90;;;;;;5031822;28;20105;-72
2022/09/07 11:31:37;;;;;;;;;;;22.00;99.90;;;;;;5032212;28;20030;-73
2022/09/07 11:34:18;;;;;;;6.95;5.43;;;22.00;99.90;;;;;;5030416;28;19992;-72
2022/09/07 11:36:54;;;;;;;7.15;4.65;;;22.00;99.90;;;;;;5031534;28;20079;-72
2022/09/07 11:39:54;;;;;;;6.55;4.88;;;22.00;99.90;;;;;;5031450;28;20102;-73
2022/09/07 11:42:25;;;;;;;9.98;5.78;;;22.10;99.90;;;;;;5029708;28;20037;-72
2022/09/07 11:45:29;;;;;;;8.68;5.75;;;22.20;99.90;;;;;;5031740;28;20025;-72
2022/09/07 11:48:01;;;;;;;8.98;6.13;;;22.30;99.90;;;;;;5000086;28;20521;-73
2022/09/07 11:50:31;;;;;;;10.93;6.78;;;22.30;99.90;;;;;;5031295;28;20398;-73
2022/09/07 11:53:22;;;;;;;9.20;6.13;;;22.40;99.90;;;;;;5030210;28;20029;-73
2022/09/07 11:56:20;;;;;;;10.40;5.80;;;22.40;99.90;;;;;;5031432;28;20091;-72
2022/09/07 11:59:15;;;;;;;8.65;5.25;;;22.50;99.90;;;;;;5029605;28;20033;-72
2022/09/07 12:01:53;;;;;;;9.30;4.97;;;22.50;99.90;;;;;;5031269;28;20032;-72
2022/09/07 12:04:28;;;;;;;9.10;5.18;;;22.50;99.90;;;;;;5031265;28;20072;-72
2022/09/07 12:07:03;;;;;;;5.63;3.80;;;22.50;99.90;;;;;;5029891;28;20482;-73
2022/09/07 12:09:56;;;;;;;6.88;4.32;;;22.50;99.90;;;;;;5013420;28;20030;-72
2022/09/07 12:12:34;;;;;;;7.63;4.47;;;22.50;99.90;;;;;;5031046;28;20382;-72
2022/09/07 12:15:12;;;;;;;7.80;5.22;;;22.50;99.90;;;;;;5029716;28;20034;-72
2022/09/07 12:17:47;;;;;;;7.93;5.00;;;22.50;99.90;;;;;;5031040;28;20100;-72
2022/09/07 12:20:23;;;;;;;9.25;4.40;;;22.50;99.90;;;;;;5030817;28;20486;-72
2022/09/07 12:23:03;;;;;;;8.40;4.43;;;22.60;99.90;;;;;;5031422;28;20477;-72
2022/09/07 12:25:30;;;;;;;7.32;3.95;;;22.60;99.90;;;;;;5029803;28;20033;-72
2022/09/07 12:27:57;;;;;;;6.72;5.38;;;22.60;99.90;;;;;;5030681;28;20057;-72
2022/09/07 12:30:22;;;;;;;7.80;4.82;;;22.60;99.90;;;;;;5030345;28;20034;-72
2022/09/07 12:32:52;;;;;;;7.50;4.75;;;22.70;99.90;;;;;;5030471;28;20040;-72
2022/09/07 12:35:30;;;;;;;10.10;6.45;;;22.70;99.90;;;;;;5030687;28;20474;-72
2022/09/07 12:37:56;;;;;;;8.57;5.05;;;22.70;99.90;;;;;;5030761;28;20035;-72
2022/09/07 12:40:32;;;;;;;5.57;3.53;;;22.80;99.90;;;;;;5030618;28;20117;-72
2022/09/07 12:43:13;;;;;;;5.88;4.10;;;22.80;99.90;;;;;;5029662;28;20029;-72
2022/09/07 12:45:39;;;;;;;6.72;3.85;;;22.90;99.90;;;;;;5029425;28;20397;-72
2022/09/07 12:48:14;;;;;;;6.28;3.67;;;22.90;99.90;;;;;;5029903;28;20033;-72
2022/09/07 12:50:54;;;;;;;6.90;4.15;;;23.00;99.90;;;;;;5029184;28;20033;-73
2022/09/07 12:53:59;;;;;;;5.68;3.80;;;23.00;99.90;;;;;;5030875;28;20104;-72
2022/09/07 12:56:30;;;;;;;8.20;4.30;;;23.00;99.90;;;;;;5030656;28;20024;-72
2022/09/07 12:59:21;;;;;;;6.47;2.97;;;23.10;99.90;;;;;;5030543;28;20022;-72
2022/09/07 13:02:12;;;;;;;7.18;2.70;;;23.00;99.80;;;;;;5030717;28;20029;-72
2022/09/07 13:04:59;;;;;;;6.25;3.53;;;23.10;99.10;;;;;;5030987;28;20108;-72
2022/09/07 13:08:14;;;;;;;5.90;3.42;;;23.10;99.10;;;;;;5029331;28;20029;-72
2022/09/07 13:10:41;;;;;;;6.15;3.30;;;23.20;99.50;;;;;;5024477;28;20498;-72
2022/09/07 13:13:19;;;;;;;8.20;3.55;;;23.20;99.00;;;;;;5029278;28;20080;-72